sensor_id;sensor_type;location;lat;lon;timestamp;P1;durP1;ratioP1;P2;durP2;ratioP2
42944;SDS011;28584;42.636;23.294;2022-10-16T00:01:20;952.00;;;876.33;;
42944;SDS011;28584;42.636;23.294;2022-10-16T00:03:47;978.53;;;901.60;;
42944;SDS011;28584;42.636;23.294;2022-10-16T00:06:13;961.73;;;883.63;;
42944;SDS011;28584;42.636;23.294;2022-10-16T00:08:41;984.97;;;905.20;;
42944;SDS011;28584;42.636;23.294;2022-10-16T00:11:07;990.87;;;910.23;;
42944;SDS011;28584;42.636;23.294;2022-10-16T00:13:34;965.43;;;886.57;;
42944;SDS011;28584;42.636;23.294;2022-10-16T00:16:01;973.73;;;894.17;;
42944;SDS011;28584;42.636;23.294;2022-10-16T00:18:27;1019.93;;;935.80;;
42944;SDS011;28584;42.636;23.294;2022-10-16T00:20:53;1021.93;;;935.73;;
42944;SDS011;28584;42.636;23.294;2022-10-16T00:23:18;1005.80;;;920.93;;
42944;SDS011;28584;42.636;23.294;2022-10-16T00:25:44;977.20;;;896.70;;
42944;SDS011;28584;42.636;23.294;2022-10-16T00:28:10;947.13;;;873.43;;
42944;SDS011;28584;42.636;23.294;2022-10-16T00:30:38;967.87;;;891.13;;
42944;SDS011;28584;42.636;23.294;2022-10-16T00:33:04;929.23;;;857.60;;
42944;SDS011;28584;42.636;23.294;2022-10-16T00:35:30;854.13;;;788.57;;
42944;SDS011;28584;42.636;23.294;2022-10-16T00:37:55;949.67;;;873.77;;
42944;SDS011;28584;42.636;23.294;2022-10-16T00:40:21;991.03;;;910.40;;
42944;SDS011;28584;42.636;23.294;2022-10-16T00:42:46;1016.37;;;930.20;;
42944;SDS011;28584;42.636;23.294;2022-10-16T00:45:12;1007.90;;;924.67;;
42944;SDS011;28584;42.636;23.294;2022-10-16T00:47:41;1003.83;;;920.30;;
42944;SDS011;28584;42.636;23.294;2022-10-16T00:50:35;1006.00;;;922.57;;
42944;SDS011;28584;42.636;23.294;2022-10-16T00:53:00;1002.43;;;919.23;;
42944;SDS011;28584;42.636;23.294;2022-10-16T00:55:27;963.03;;;885.87;;
42944;SDS011;28584;42.636;23.294;2022-10-16T00:57:54;977.47;;;899.50;;
42944;SDS011;28584;42.636;23.294;2022-10-16T01:00:22;951.53;;;876.20;;
42944;SDS011;28584;42.636;23.294;2022-10-16T01:02:55;910.30;;;838.77;;
42944;SDS011;28584;42.636;23.294;2022-10-16T01:05:24;905.63;;;836.37;;
42944;SDS011;28584;42.636;23.294;2022-10-16T01:08:04;903.37;;;835.17;;
42944;SDS011;28584;42.636;23.294;2022-10-16T01:10:39;896.27;;;827.47;;
42944;SDS011;28584;42.636;23.294;2022-10-16T01:20:42;905.83;;;837.87;;
42944;SDS011;28584;42.636;23.294;2022-10-16T01:31:10;851.50;;;787.87;;
42944;SDS011;28584;42.636;23.294;2022-10-16T01:33:40;860.37;;;795.90;;
42944;SDS011;28584;42.636;23.294;2022-10-16T01:36:13;863.90;;;799.70;;
42944;SDS011;28584;42.636;23.294;2022-10-16T01:38:42;882.33;;;815.10;;
42944;SDS011;28584;42.636;23.294;2022-10-16T01:41:11;858.23;;;794.83;;
42944;SDS011;28584;42.636;23.294;2022-10-16T01:43:45;845.17;;;782.00;;
42944;SDS011;28584;42.636;23.294;2022-10-16T01:46:15;872.63;;;804.57;;
42944;SDS011;28584;42.636;23.294;2022-10-16T01:48:43;850.20;;;784.97;;
42944;SDS011;28584;42.636;23.294;2022-10-16T01:51:11;829.67;;;768.17;;
42944;SDS011;28584;42.636;23.294;2022-10-16T01:53:38;826.67;;;763.77;;
42944;SDS011;28584;42.636;23.294;2022-10-16T01:56:08;817.40;;;755.57;;
42944;SDS011;28584;42.636;23.294;2022-10-16T01:58:41;825.50;;;762.20;;
42944;SDS011;28584;42.636;23.294;2022-10-16T02:01:12;881.07;;;813.07;;
42944;SDS011;28584;42.636;23.294;2022-10-16T02:03:42;883.73;;;814.03;;
42944;SDS011;28584;42.636;23.294;2022-10-16T02:06:09;908.23;;;836.93;;
42944;SDS011;28584;42.636;23.294;2022-10-16T02:08:35;936.93;;;860.40;;
42944;SDS011;28584;42.636;23.294;2022-10-16T02:11:04;929.77;;;855.60;;
42944;SDS011;28584;42.636;23.294;2022-10-16T02:13:37;914.00;;;841.93;;
42944;SDS011;28584;42.636;23.294;2022-10-16T02:16:10;883.07;;;814.67;;
42944;SDS011;28584;42.636;23.294;2022-10-16T02:18:36;869.27;;;801.20;;
42944;SDS011;28584;42.636;23.294;2022-10-16T02:26:17;925.30;;;852.73;;
42944;SDS011;28584;42.636;23.294;2022-10-16T02:28:53;839.30;;;776.73;;
42944;SDS011;28584;42.636;23.294;2022-10-16T02:31:28;789.70;;;730.93;;
42944;SDS011;28584;42.636;23.294;2022-10-16T02:33:59;809.60;;;747.60;;
42944;SDS011;28584;42.636;23.294;2022-10-16T02:36:26;757.10;;;701.47;;
42944;SDS011;28584;42.636;23.294;2022-10-16T02:38:52;798.83;;;739.30;;
42944;SDS011;28584;42.636;23.294;2022-10-16T02:41:18;828.33;;;765.63;;
42944;SDS011;28584;42.636;23.294;2022-10-16T02:43:46;855.37;;;789.53;;
42944;SDS011;28584;42.636;23.294;2022-10-16T02:46:11;852.47;;;785.53;;
42944;SDS011;28584;42.636;23.294;2022-10-16T02:48:37;853.27;;;788.47;;
42944;SDS011;28584;42.636;23.294;2022-10-16T02:51:02;832.20;;;768.77;;
42944;SDS011;28584;42.636;23.294;2022-10-16T02:53:28;799.53;;;740.63;;
42944;SDS011;28584;42.636;23.294;2022-10-16T02:55:53;795.13;;;735.27;;
42944;SDS011;28584;42.636;23.294;2022-10-16T02:58:18;819.43;;;757.73;;
42944;SDS011;28584;42.636;23.294;2022-10-16T03:00:44;819.83;;;756.77;;
42944;SDS011;28584;42.636;23.294;2022-10-16T03:03:09;783.07;;;723.20;;
42944;SDS011;28584;42.636;23.294;2022-10-16T03:05:35;805.77;;;744.23;;
42944;SDS011;28584;42.636;23.294;2022-10-16T03:08:00;743.67;;;687.47;;
42944;SDS011;28584;42.636;23.294;2022-10-16T03:10:26;750.37;;;693.07;;
42944;SDS011;28584;42.636;23.294;2022-10-16T03:12:51;743.47;;;686.43;;
42944;SDS011;28584;42.636;23.294;2022-10-16T03:15:17;767.23;;;707.60;;
42944;SDS011;28584;42.636;23.294;2022-10-16T03:17:42;817.03;;;752.33;;
42944;SDS011;28584;42.636;23.294;2022-10-16T03:20:08;813.77;;;747.57;;
42944;SDS011;28584;42.636;23.294;2022-10-16T03:22:33;827.97;;;760.80;;
42944;SDS011;28584;42.636;23.294;2022-10-16T03:24:59;818.20;;;752.33;;
42944;SDS011;28584;42.636;23.294;2022-10-16T03:27:24;843.27;;;774.67;;
42944;SDS011;28584;42.636;23.294;2022-10-16T03:29:50;836.23;;;766.53;;
42944;SDS011;28584;42.636;23.294;2022-10-16T03:32:15;845.03;;;775.80;;
42944;SDS011;28584;42.636;23.294;2022-10-16T03:34:40;847.20;;;776.83;;
42944;SDS011;28584;42.636;23.294;2022-10-16T03:37:06;858.30;;;786.93;;
42944;SDS011;28584;42.636;23.294;2022-10-16T03:39:31;857.17;;;783.67;;
42944;SDS011;28584;42.636;23.294;2022-10-16T03:41:57;859.17;;;787.70;;
42944;SDS011;28584;42.636;23.294;2022-10-16T03:44:22;864.67;;;793.47;;
42944;SDS011;28584;42.636;23.294;2022-10-16T03:46:47;875.20;;;801.60;;
42944;SDS011;28584;42.636;23.294;2022-10-16T03:49:13;864.23;;;793.60;;
42944;SDS011;28584;42.636;23.294;2022-10-16T03:51:38;829.03;;;763.93;;
42944;SDS011;28584;42.636;23.294;2022-10-16T03:54:04;811.53;;;748.10;;
42944;SDS011;28584;42.636;23.294;2022-10-16T03:56:29;797.23;;;736.43;;
42944;SDS011;28584;42.636;23.294;2022-10-16T03:58:54;830.03;;;766.67;;
42944;SDS011;28584;42.636;23.294;2022-10-16T04:01:20;829.33;;;767.77;;
42944;SDS011;28584;42.636;23.294;2022-10-16T04:03:45;826.73;;;767.23;;
42944;SDS011;28584;42.636;23.294;2022-10-16T04:06:10;820.67;;;760.73;;
42944;SDS011;28584;42.636;23.294;2022-10-16T04:08:36;850.67;;;782.90;;
42944;SDS011;28584;42.636;23.294;2022-10-16T04:11:02;851.70;;;783.67;;
42944;SDS011;28584;42.636;23.294;2022-10-16T04:13:28;850.37;;;783.20;;
42944;SDS011;28584;42.636;23.294;2022-10-16T04:15:54;863.10;;;793.50;;
42944;SDS011;28584;42.636;23.294;2022-10-16T04:18:19;892.90;;;820.97;;
42944;SDS011;28584;42.636;23.294;2022-10-16T04:20:44;878.40;;;809.33;;
42944;SDS011;28584;42.636;23.294;2022-10-16T04:23:10;1251.17;;;872.13;;
42944;SDS011;28584;42.636;23.294;2022-10-16T04:25:35;880.97;;;810.77;;
42944;SDS011;28584;42.636;23.294;2022-10-16T04:28:00;1257.23;;;877.60;;
42944;SDS011;28584;42.636;23.294;2022-10-16T04:30:26;897.20;;;825.53;;
42944;SDS011;28584;42.636;23.294;2022-10-16T04:32:51;885.63;;;816.83;;
42944;SDS011;28584;42.636;23.294;2022-10-16T04:35:18;853.03;;;784.87;;
42944;SDS011;28584;42.636;23.294;2022-10-16T04:37:44;842.80;;;776.67;;
42944;SDS011;28584;42.636;23.294;2022-10-16T04:40:10;860.60;;;791.50;;
42944;SDS011;28584;42.636;23.294;2022-10-16T04:42:35;863.17;;;794.20;;
42944;SDS011;28584;42.636;23.294;2022-10-16T04:45:00;856.03;;;789.73;;
42944;SDS011;28584;42.636;23.294;2022-10-16T04:47:26;854.63;;;788.10;;
42944;SDS011;28584;42.636;23.294;2022-10-16T04:49:51;852.77;;;786.13;;
42944;SDS011;28584;42.636;23.294;2022-10-16T04:52:17;863.80;;;796.03;;
42944;SDS011;28584;42.636;23.294;2022-10-16T04:54:43;871.93;;;803.13;;
42944;SDS011;28584;42.636;23.294;2022-10-16T04:57:10;892.00;;;821.53;;
42944;SDS011;28584;42.636;23.294;2022-10-16T04:59:35;910.60;;;838.50;;
42944;SDS011;28584;42.636;23.294;2022-10-16T05:02:01;879.90;;;813.13;;
42944;SDS011;28584;42.636;23.294;2022-10-16T05:04:26;891.83;;;821.50;;
42944;SDS011;28584;42.636;23.294;2022-10-16T05:06:52;877.57;;;810.00;;
42944;SDS011;28584;42.636;23.294;2022-10-16T05:09:17;849.60;;;785.10;;
42944;SDS011;28584;42.636;23.294;2022-10-16T05:11:43;746.57;;;693.20;;
42944;SDS011;28584;42.636;23.294;2022-10-16T05:14:08;758.70;;;702.83;;
42944;SDS011;28584;42.636;23.294;2022-10-16T05:16:33;746.60;;;692.27;;
42944;SDS011;28584;42.636;23.294;2022-10-16T05:18:59;782.87;;;723.97;;
42944;SDS011;28584;42.636;23.294;2022-10-16T05:21:24;742.47;;;685.77;;
42944;SDS011;28584;42.636;23.294;2022-10-16T05:23:49;729.27;;;671.40;;
42944;SDS011;28584;42.636;23.294;2022-10-16T05:26:15;670.78;;;623.63;;
42944;SDS011;28584;42.636;23.294;2022-10-16T05:28:40;719.33;;;667.57;;
42944;SDS011;28584;42.636;23.294;2022-10-16T05:31:06;751.67;;;696.93;;
42944;SDS011;28584;42.636;23.294;2022-10-16T05:33:33;676.15;;;627.13;;
42944;SDS011;28584;42.636;23.294;2022-10-16T05:36:05;704.22;;;653.80;;
42944;SDS011;28584;42.636;23.294;2022-10-16T05:38:32;769.13;;;716.67;;
42944;SDS011;28584;42.636;23.294;2022-10-16T05:41:02;755.53;;;702.90;;
42944;SDS011;28584;42.636;23.294;2022-10-16T05:43:28;765.75;;;704.35;;
42944;SDS011;28584;42.636;23.294;2022-10-16T05:46:00;792.42;;;731.60;;
42944;SDS011;28584;42.636;23.294;2022-10-16T05:48:28;850.67;;;778.83;;
42944;SDS011;28584;42.636;23.294;2022-10-16T05:51:00;826.20;;;758.67;;
42944;SDS011;28584;42.636;23.294;2022-10-16T05:53:29;834.38;;;765.60;;
42944;SDS011;28584;42.636;23.294;2022-10-16T05:55:55;846.70;;;777.88;;
42944;SDS011;28584;42.636;23.294;2022-10-16T05:58:22;758.40;;;702.88;;
42944;SDS011;28584;42.636;23.294;2022-10-16T06:00:55;774.65;;;717.72;;
42944;SDS011;28584;42.636;23.294;2022-10-16T06:03:25;658.63;;;613.28;;
42944;SDS011;28584;42.636;23.294;2022-10-16T06:05:51;572.10;;;531.92;;
42944;SDS011;28584;42.636;23.294;2022-10-16T06:08:17;710.08;;;654.58;;
42944;SDS011;28584;42.636;23.294;2022-10-16T06:10:44;909.45;;;834.58;;
42944;SDS011;28584;42.636;23.294;2022-10-16T06:13:10;887.28;;;817.58;;
42944;SDS011;28584;42.636;23.294;2022-10-16T06:15:37;798.33;;;736.47;;
42944;SDS011;28584;42.636;23.294;2022-10-16T06:18:04;647.33;;;604.25;;
42944;SDS011;28584;42.636;23.294;2022-10-16T06:20:30;634.10;;;590.13;;
42944;SDS011;28584;42.636;23.294;2022-10-16T06:22:55;514.50;;;477.67;;
42944;SDS011;28584;42.636;23.294;2022-10-16T06:25:22;333.92;;;310.52;;
42944;SDS011;28584;42.636;23.294;2022-10-16T06:27:47;449.50;;;415.27;;
42944;SDS011;28584;42.636;23.294;2022-10-16T06:30:13;439.85;;;405.23;;
42944;SDS011;28584;42.636;23.294;2022-10-16T06:32:38;350.50;;;323.73;;
42944;SDS011;28584;42.636;23.294;2022-10-16T06:35:04;315.30;;;290.52;;
42944;SDS011;28584;42.636;23.294;2022-10-16T06:37:29;382.67;;;351.83;;
42944;SDS011;28584;42.636;23.294;2022-10-16T06:39:54;217.77;;;203.07;;
42944;SDS011;28584;42.636;23.294;2022-10-16T06:42:20;356.05;;;329.85;;
42944;SDS011;28584;42.636;23.294;2022-10-16T06:44:45;375.30;;;346.58;;
42944;SDS011;28584;42.636;23.294;2022-10-16T06:47:11;307.50;;;284.20;;
42944;SDS011;28584;42.636;23.294;2022-10-16T06:49:36;449.85;;;413.52;;
42944;SDS011;28584;42.636;23.294;2022-10-16T06:52:01;471.13;;;434.42;;
42944;SDS011;28584;42.636;23.294;2022-10-16T06:54:27;351.45;;;323.65;;
42944;SDS011;28584;42.636;23.294;2022-10-16T06:56:53;370.63;;;341.60;;
42944;SDS011;28584;42.636;23.294;2022-10-16T06:59:19;260.90;;;240.93;;
42944;SDS011;28584;42.636;23.294;2022-10-16T07:01:45;237.00;;;219.73;;
42944;SDS011;28584;42.636;23.294;2022-10-16T07:04:11;194.15;;;181.00;;
42944;SDS011;28584;42.636;23.294;2022-10-16T07:06:36;151.35;;;141.50;;
42944;SDS011;28584;42.636;23.294;2022-10-16T07:09:03;134.93;;;126.20;;
42944;SDS011;28584;42.636;23.294;2022-10-16T07:11:30;135.25;;;126.22;;
42944;SDS011;28584;42.636;23.294;2022-10-16T07:13:55;114.28;;;106.90;;
42944;SDS011;28584;42.636;23.294;2022-10-16T07:16:22;190.73;;;178.98;;
42944;SDS011;28584;42.636;23.294;2022-10-16T07:18:49;216.50;;;202.60;;
42944;SDS011;28584;42.636;23.294;2022-10-16T07:21:17;232.48;;;216.52;;
42944;SDS011;28584;42.636;23.294;2022-10-16T07:23:45;221.35;;;207.40;;
42944;SDS011;28584;42.636;23.294;2022-10-16T07:26:15;291.52;;;272.90;;
42944;SDS011;28584;42.636;23.294;2022-10-16T07:28:40;287.10;;;269.00;;
42944;SDS011;28584;42.636;23.294;2022-10-16T07:31:09;378.70;;;352.83;;
42944;SDS011;28584;42.636;23.294;2022-10-16T07:33:37;449.98;;;419.13;;
42944;SDS011;28584;42.636;23.294;2022-10-16T07:36:03;487.98;;;454.48;;
42944;SDS011;28584;42.636;23.294;2022-10-16T07:38:29;511.67;;;476.23;;
42944;SDS011;28584;42.636;23.294;2022-10-16T07:40:55;473.40;;;441.88;;
42944;SDS011;28584;42.636;23.294;2022-10-16T07:43:31;495.50;;;461.80;;
42944;SDS011;28584;42.636;23.294;2022-10-16T07:45:57;516.85;;;481.23;;
42944;SDS011;28584;42.636;23.294;2022-10-16T07:48:23;501.30;;;467.25;;
42944;SDS011;28584;42.636;23.294;2022-10-16T07:50:51;483.85;;;450.92;;
42944;SDS011;28584;42.636;23.294;2022-10-16T07:53:16;481.98;;;448.95;;
42944;SDS011;28584;42.636;23.294;2022-10-16T07:55:42;478.05;;;445.55;;
42944;SDS011;28584;42.636;23.294;2022-10-16T07:58:07;533.70;;;496.67;;
42944;SDS011;28584;42.636;23.294;2022-10-16T08:00:33;395.08;;;369.52;;
42944;SDS011;28584;42.636;23.294;2022-10-16T08:02:58;512.58;;;476.27;;
42944;SDS011;28584;42.636;23.294;2022-10-16T08:05:29;435.55;;;406.67;;
42944;SDS011;28584;42.636;23.294;2022-10-16T08:07:57;326.77;;;305.73;;
42944;SDS011;28584;42.636;23.294;2022-10-16T08:10:23;361.02;;;336.30;;
42944;SDS011;28584;42.636;23.294;2022-10-16T08:12:50;284.75;;;266.10;;
42944;SDS011;28584;42.636;23.294;2022-10-16T08:15:16;300.50;;;280.30;;
42944;SDS011;28584;42.636;23.294;2022-10-16T08:17:42;297.10;;;277.35;;
42944;SDS011;28584;42.636;23.294;2022-10-16T08:20:08;318.25;;;296.58;;
42944;SDS011;28584;42.636;23.294;2022-10-16T08:22:34;412.17;;;383.55;;
42944;SDS011;28584;42.636;23.294;2022-10-16T08:24:59;318.77;;;297.75;;
42944;SDS011;28584;42.636;23.294;2022-10-16T08:27:24;468.52;;;435.92;;
42944;SDS011;28584;42.636;23.294;2022-10-16T08:29:50;536.05;;;500.33;;
42944;SDS011;28584;42.636;23.294;2022-10-16T08:32:15;510.95;;;476.30;;
42944;SDS011;28584;42.636;23.294;2022-10-16T08:34:41;523.63;;;488.45;;
42944;SDS011;28584;42.636;23.294;2022-10-16T08:37:06;453.00;;;423.52;;
42944;SDS011;28584;42.636;23.294;2022-10-16T08:39:37;379.58;;;355.00;;
42944;SDS011;28584;42.636;23.294;2022-10-16T08:50:36;385.95;;;360.40;;
42944;SDS011;28584;42.636;23.294;2022-10-16T08:53:04;359.48;;;335.42;;
42944;SDS011;28584;42.636;23.294;2022-10-16T08:58:05;493.83;;;460.48;;
42944;SDS011;28584;42.636;23.294;2022-10-16T09:01:03;525.30;;;491.55;;
42944;SDS011;28584;42.636;23.294;2022-10-16T09:13:50;332.77;;;314.67;;
42944;SDS011;28584;42.636;23.294;2022-10-16T09:21:43;443.80;;;417.77;;
42944;SDS011;28584;42.636;23.294;2022-10-16T09:24:20;247.50;;;233.93;;
42944;SDS011;28584;42.636;23.294;2022-10-16T09:26:49;251.02;;;237.10;;
42944;SDS011;28584;42.636;23.294;2022-10-16T09:29:16;367.40;;;345.90;;
42944;SDS011;28584;42.636;23.294;2022-10-16T09:31:45;426.50;;;398.58;;
42944;SDS011;28584;42.636;23.294;2022-10-16T09:36:54;266.42;;;250.15;;
42944;SDS011;28584;42.636;23.294;2022-10-16T09:39:22;297.85;;;280.88;;
42944;SDS011;28584;42.636;23.294;2022-10-16T09:41:47;428.95;;;403.83;;
42944;SDS011;28584;42.636;23.294;2022-10-16T09:44:23;314.58;;;296.63;;
42944;SDS011;28584;42.636;23.294;2022-10-16T09:47:06;275.48;;;259.73;;
42944;SDS011;28584;42.636;23.294;2022-10-16T09:49:39;377.08;;;354.90;;
42944;SDS011;28584;42.636;23.294;2022-10-16T09:52:16;367.42;;;345.88;;
42944;SDS011;28584;42.636;23.294;2022-10-16T09:54:53;346.10;;;325.88;;
42944;SDS011;28584;42.636;23.294;2022-10-16T09:57:20;377.67;;;356.30;;
42944;SDS011;28584;42.636;23.294;2022-10-16T09:59:48;358.98;;;337.67;;
42944;SDS011;28584;42.636;23.294;2022-10-16T10:02:15;427.02;;;401.85;;
42944;SDS011;28584;42.636;23.294;2022-10-16T10:04:53;394.92;;;372.15;;
42944;SDS011;28584;42.636;23.294;2022-10-16T10:07:32;327.92;;;309.60;;
42944;SDS011;28584;42.636;23.294;2022-10-16T10:10:04;274.10;;;257.65;;
42944;SDS011;28584;42.636;23.294;2022-10-16T10:12:31;395.77;;;372.80;;
42944;SDS011;28584;42.636;23.294;2022-10-16T10:15:06;334.42;;;315.52;;
42944;SDS011;28584;42.636;23.294;2022-10-16T10:17:46;439.17;;;413.40;;
42944;SDS011;28584;42.636;23.294;2022-10-16T10:22:56;432.63;;;407.20;;
42944;SDS011;28584;42.636;23.294;2022-10-16T10:25:25;515.53;;;484.13;;
42944;SDS011;28584;42.636;23.294;2022-10-16T10:30:48;336.05;;;317.33;;
42944;SDS011;28584;42.636;23.294;2022-10-16T10:36:58;368.23;;;346.88;;
42944;SDS011;28584;42.636;23.294;2022-10-16T10:48:17;306.85;;;289.73;;
42944;SDS011;28584;42.636;23.294;2022-10-16T10:55:46;281.98;;;266.40;;
42944;SDS011;28584;42.636;23.294;2022-10-16T11:02:02;289.33;;;272.52;;
42944;SDS011;28584;42.636;23.294;2022-10-16T11:10:01;347.63;;;328.90;;
42944;SDS011;28584;42.636;23.294;2022-10-16T11:12:35;299.65;;;283.15;;
42944;SDS011;28584;42.636;23.294;2022-10-16T11:15:13;260.55;;;246.05;;
42944;SDS011;28584;42.636;23.294;2022-10-16T11:17:44;301.23;;;285.10;;
42944;SDS011;28584;42.636;23.294;2022-10-16T11:20:59;370.88;;;348.17;;
42944;SDS011;28584;42.636;23.294;2022-10-16T11:23:28;321.88;;;304.05;;
42944;SDS011;28584;42.636;23.294;2022-10-16T11:26:01;343.77;;;323.85;;
42944;SDS011;28584;42.636;23.294;2022-10-16T11:28:32;333.08;;;314.88;;
42944;SDS011;28584;42.636;23.294;2022-10-16T11:31:13;301.67;;;285.90;;
42944;SDS011;28584;42.636;23.294;2022-10-16T11:36:45;252.15;;;240.45;;
42944;SDS011;28584;42.636;23.294;2022-10-16T11:41:50;225.98;;;215.40;;
42944;SDS011;28584;42.636;23.294;2022-10-16T11:50:20;266.77;;;252.88;;
42944;SDS011;28584;42.636;23.294;2022-10-16T11:55:39;209.77;;;200.20;;
42944;SDS011;28584;42.636;23.294;2022-10-16T11:58:07;242.32;;;230.05;;
42944;SDS011;28584;42.636;23.294;2022-10-16T12:01:05;268.88;;;255.30;;
42944;SDS011;28584;42.636;23.294;2022-10-16T12:08:59;219.55;;;209.75;;
42944;SDS011;28584;42.636;23.294;2022-10-16T12:19:20;211.82;;;202.57;;
42944;SDS011;28584;42.636;23.294;2022-10-16T12:21:46;202.15;;;192.43;;
42944;SDS011;28584;42.636;23.294;2022-10-16T12:24:20;203.82;;;193.68;;
42944;SDS011;28584;42.636;23.294;2022-10-16T12:26:46;218.10;;;208.27;;
42944;SDS011;28584;42.636;23.294;2022-10-16T12:31:48;330.85;;;313.83;;
42944;SDS011;28584;42.636;23.294;2022-10-16T12:34:37;286.83;;;271.35;;
42944;SDS011;28584;42.636;23.294;2022-10-16T12:39:37;208.43;;;198.82;;
42944;SDS011;28584;42.636;23.294;2022-10-16T12:42:48;262.02;;;249.25;;
42944;SDS011;28584;42.636;23.294;2022-10-16T12:44:56;210.85;;;201.10;;
42944;SDS011;28584;42.636;23.294;2022-10-16T12:47:23;244.65;;;232.45;;
42944;SDS011;28584;42.636;23.294;2022-10-16T12:49:55;214.57;;;204.93;;
42944;SDS011;28584;42.636;23.294;2022-10-16T12:52:28;341.88;;;323.73;;
42944;SDS011;28584;42.636;23.294;2022-10-16T12:54:59;312.10;;;295.85;;
42944;SDS011;28584;42.636;23.294;2022-10-16T13:00:18;242.82;;;231.05;;
42944;SDS011;28584;42.636;23.294;2022-10-16T13:05:56;249.48;;;236.98;;
42944;SDS011;28584;42.636;23.294;2022-10-16T13:29:54;291.73;;;276.30;;
42944;SDS011;28584;42.636;23.294;2022-10-16T13:32:27;377.98;;;357.23;;
42944;SDS011;28584;42.636;23.294;2022-10-16T13:34:53;370.88;;;349.88;;
42944;SDS011;28584;42.636;23.294;2022-10-16T13:37:20;284.77;;;267.88;;
42944;SDS011;28584;42.636;23.294;2022-10-16T13:39:46;302.33;;;285.38;;
42944;SDS011;28584;42.636;23.294;2022-10-16T13:42:28;221.23;;;208.63;;
42944;SDS011;28584;42.636;23.294;2022-10-16T13:44:55;222.07;;;210.05;;
42944;SDS011;28584;42.636;23.294;2022-10-16T13:47:22;248.32;;;234.90;;
42944;SDS011;28584;42.636;23.294;2022-10-16T13:50:02;253.70;;;239.80;;
42944;SDS011;28584;42.636;23.294;2022-10-16T13:52:36;278.40;;;263.00;;
42944;SDS011;28584;42.636;23.294;2022-10-16T13:55:03;300.73;;;283.90;;
42944;SDS011;28584;42.636;23.294;2022-10-16T13:57:30;300.45;;;284.08;;
42944;SDS011;28584;42.636;23.294;2022-10-16T13:59:55;412.63;;;388.27;;
42944;SDS011;28584;42.636;23.294;2022-10-16T14:02:29;428.98;;;404.27;;
42944;SDS011;28584;42.636;23.294;2022-10-16T14:05:02;482.88;;;453.20;;
42944;SDS011;28584;42.636;23.294;2022-10-16T14:07:30;491.67;;;461.42;;
42944;SDS011;28584;42.636;23.294;2022-10-16T14:10:00;509.83;;;477.60;;
42944;SDS011;28584;42.636;23.294;2022-10-16T14:12:29;545.90;;;510.65;;
42944;SDS011;28584;42.636;23.294;2022-10-16T14:14:55;480.70;;;451.63;;
42944;SDS011;28584;42.636;23.294;2022-10-16T14:17:30;574.03;;;537.30;;
42944;SDS011;28584;42.636;23.294;2022-10-16T14:19:59;562.25;;;526.58;;
42944;SDS011;28584;42.636;23.294;2022-10-16T14:22:33;546.53;;;511.13;;
42944;SDS011;28584;42.636;23.294;2022-10-16T14:24:59;452.35;;;422.88;;
42944;SDS011;28584;42.636;23.294;2022-10-16T14:27:31;543.58;;;508.92;;
42944;SDS011;28584;42.636;23.294;2022-10-16T14:32:37;482.67;;;452.92;;
42944;SDS011;28584;42.636;23.294;2022-10-16T14:35:21;372.00;;;349.13;;
42944;SDS011;28584;42.636;23.294;2022-10-16T14:37:50;434.50;;;407.98;;
42944;SDS011;28584;42.636;23.294;2022-10-16T14:40:17;344.10;;;324.13;;
42944;SDS011;28584;42.636;23.294;2022-10-16T14:42:43;528.42;;;495.55;;
42944;SDS011;28584;42.636;23.294;2022-10-16T14:45:10;540.22;;;506.73;;
42944;SDS011;28584;42.636;23.294;2022-10-16T14:47:37;546.90;;;511.77;;
42944;SDS011;28584;42.636;23.294;2022-10-16T14:50:17;503.70;;;472.50;;
42944;SDS011;28584;42.636;23.294;2022-10-16T14:52:42;485.10;;;455.55;;
42944;SDS011;28584;42.636;23.294;2022-10-16T14:55:09;535.10;;;501.17;;
42944;SDS011;28584;42.636;23.294;2022-10-16T14:57:34;386.40;;;362.90;;
42944;SDS011;28584;42.636;23.294;2022-10-16T15:00:03;347.20;;;327.33;;
42944;SDS011;28584;42.636;23.294;2022-10-16T15:02:35;304.40;;;286.80;;
42944;SDS011;28584;42.636;23.294;2022-10-16T15:05:17;418.58;;;392.95;;
42944;SDS011;28584;42.636;23.294;2022-10-16T15:07:44;391.38;;;368.65;;
42944;SDS011;28584;42.636;23.294;2022-10-16T15:10:11;276.40;;;260.77;;
42944;SDS011;28584;42.636;23.294;2022-10-16T15:12:41;328.13;;;309.98;;
42944;SDS011;28584;42.636;23.294;2022-10-16T15:15:15;367.08;;;345.33;;
42944;SDS011;28584;42.636;23.294;2022-10-16T15:17:55;443.00;;;416.13;;
42944;SDS011;28584;42.636;23.294;2022-10-16T15:20:25;527.85;;;495.98;;
42944;SDS011;28584;42.636;23.294;2022-10-16T15:22:55;339.40;;;319.58;;
42944;SDS011;28584;42.636;23.294;2022-10-16T15:27:58;334.75;;;316.20;;
42944;SDS011;28584;42.636;23.294;2022-10-16T15:30:25;304.42;;;287.42;;
42944;SDS011;28584;42.636;23.294;2022-10-16T15:32:50;446.98;;;422.13;;
42944;SDS011;28584;42.636;23.294;2022-10-16T15:35:16;313.30;;;296.23;;
42944;SDS011;28584;42.636;23.294;2022-10-16T15:37:41;331.45;;;313.35;;
42944;SDS011;28584;42.636;23.294;2022-10-16T15:40:08;288.60;;;273.00;;
42944;SDS011;28584;42.636;23.294;2022-10-16T15:42:35;367.35;;;346.70;;
42944;SDS011;28584;42.636;23.294;2022-10-16T15:45:00;405.25;;;381.98;;
42944;SDS011;28584;42.636;23.294;2022-10-16T15:47:26;338.15;;;319.75;;
42944;SDS011;28584;42.636;23.294;2022-10-16T15:49:51;482.23;;;453.60;;
42944;SDS011;28584;42.636;23.294;2022-10-16T15:52:16;480.20;;;451.42;;
42944;SDS011;28584;42.636;23.294;2022-10-16T15:54:42;348.10;;;329.02;;
42944;SDS011;28584;42.636;23.294;2022-10-16T15:57:08;409.23;;;385.25;;
42944;SDS011;28584;42.636;23.294;2022-10-16T15:59:33;486.65;;;458.17;;
42944;SDS011;28584;42.636;23.294;2022-10-16T16:01:59;471.73;;;443.80;;
42944;SDS011;28584;42.636;23.294;2022-10-16T16:04:24;406.70;;;382.20;;
42944;SDS011;28584;42.636;23.294;2022-10-16T16:06:49;468.05;;;439.63;;
42944;SDS011;28584;42.636;23.294;2022-10-16T16:09:15;452.58;;;425.88;;
42944;SDS011;28584;42.636;23.294;2022-10-16T16:11:40;480.77;;;451.67;;
42944;SDS011;28584;42.636;23.294;2022-10-16T16:14:06;517.00;;;485.50;;
42944;SDS011;28584;42.636;23.294;2022-10-16T16:16:35;503.55;;;473.23;;
42944;SDS011;28584;42.636;23.294;2022-10-16T16:19:03;438.55;;;412.42;;